sensor_id;sensor_type;location;lat;lon;timestamp;temperature;humidity
21518;DHT22;61765;45.794;24.150;2024-03-22T00:01:12;11.70;69.20
21518;DHT22;61765;45.794;24.150;2024-03-22T00:09:17;11.80;68.70
21518;DHT22;61765;45.794;24.150;2024-03-22T00:17:19;11.50;69.10
21518;DHT22;61765;45.794;24.150;2024-03-22T00:25:24;11.10;70.00
21518;DHT22;61765;45.794;24.150;2024-03-22T00:33:26;11.10;70.50
21518;DHT22;61765;45.794;24.150;2024-03-22T00:41:31;11.00;70.60
21518;DHT22;61765;45.794;24.150;2024-03-22T00:49:33;10.80;72.20
21518;DHT22;61765;45.794;24.150;2024-03-22T00:57:38;10.70;72.10
21518;DHT22;61765;45.794;24.150;2024-03-22T01:05:40;10.70;72.50
21518;DHT22;61765;45.794;24.150;2024-03-22T01:13:45;10.30;72.70
21518;DHT22;61765;45.794;24.150;2024-03-22T01:21:47;10.20;74.20
21518;DHT22;61765;45.794;24.150;2024-03-22T01:29:51;10.50;73.20
21518;DHT22;61765;45.794;24.150;2024-03-22T01:37:53;10.40;73.00
21518;DHT22;61765;45.794;24.150;2024-03-22T01:45:58;10.10;74.10
21518;DHT22;61765;45.794;24.150;2024-03-22T01:54:01;10.20;73.50
21518;DHT22;61765;45.794;24.150;2024-03-22T02:02:06;9.90;74.10
21518;DHT22;61765;45.794;24.150;2024-03-22T02:10:09;9.60;75.80
21518;DHT22;61765;45.794;24.150;2024-03-22T02:18:15;9.60;76.00
21518;DHT22;61765;45.794;24.150;2024-03-22T02:26:19;9.90;75.00
21518;DHT22;61765;45.794;24.150;2024-03-22T02:34:21;9.90;74.80
21518;DHT22;61765;45.794;24.150;2024-03-22T02:42:26;10.20;74.20
21518;DHT22;61765;45.794;24.150;2024-03-22T02:50:31;9.70;75.30
21518;DHT22;61765;45.794;24.150;2024-03-22T02:58:37;9.60;75.40
21518;DHT22;61765;45.794;24.150;2024-03-22T03:06:39;9.50;75.90
21518;DHT22;61765;45.794;24.150;2024-03-22T03:14:44;9.50;76.30
21518;DHT22;61765;45.794;24.150;2024-03-22T03:22:46;9.40;75.80
21518;DHT22;61765;45.794;24.150;2024-03-22T03:30:50;9.50;75.70
21518;DHT22;61765;45.794;24.150;2024-03-22T03:38:52;9.00;76.90
21518;DHT22;61765;45.794;24.150;2024-03-22T03:46:57;9.10;76.90
21518;DHT22;61765;45.794;24.150;2024-03-22T03:54:59;9.20;76.40
21518;DHT22;61765;45.794;24.150;2024-03-22T04:03:03;9.00;77.40
21518;DHT22;61765;45.794;24.150;2024-03-22T04:11:05;9.10;77.30
21518;DHT22;61765;45.794;24.150;2024-03-22T04:19:10;9.00;77.20
21518;DHT22;61765;45.794;24.150;2024-03-22T04:27:12;9.30;76.90
21518;DHT22;61765;45.794;24.150;2024-03-22T04:35:17;8.90;77.50
21518;DHT22;61765;45.794;24.150;2024-03-22T04:43:19;9.00;77.20
21518;DHT22;61765;45.794;24.150;2024-03-22T04:51:24;8.90;77.40
21518;DHT22;61765;45.794;24.150;2024-03-22T04:59:26;8.80;78.20
21518;DHT22;61765;45.794;24.150;2024-03-22T05:07:30;9.20;77.60
21518;DHT22;61765;45.794;24.150;2024-03-22T05:15:32;9.30;76.70
21518;DHT22;61765;45.794;24.150;2024-03-22T05:23:37;8.50;78.70
21518;DHT22;61765;45.794;24.150;2024-03-22T05:31:47;8.20;80.40
21518;DHT22;61765;45.794;24.150;2024-03-22T05:39:52;8.90;78.80
21518;DHT22;61765;45.794;24.150;2024-03-22T05:47:54;9.40;78.00
21518;DHT22;61765;45.794;24.150;2024-03-22T05:55:58;9.90;75.90
21518;DHT22;61765;45.794;24.150;2024-03-22T06:04:00;9.60;76.30
21518;DHT22;61765;45.794;24.150;2024-03-22T06:12:05;10.00;75.80
21518;DHT22;61765;45.794;24.150;2024-03-22T06:20:08;10.50;75.70
21518;DHT22;61765;45.794;24.150;2024-03-22T06:28:13;11.10;73.20
21518;DHT22;61765;45.794;24.150;2024-03-22T06:36:15;10.60;73.50
21518;DHT22;61765;45.794;24.150;2024-03-22T06:44:19;9.40;77.10
21518;DHT22;61765;45.794;24.150;2024-03-22T06:52:21;11.00;75.60
21518;DHT22;61765;45.794;24.150;2024-03-22T07:00:26;12.40;70.40
21518;DHT22;61765;45.794;24.150;2024-03-22T07:08:28;12.70;69.60
21518;DHT22;61765;45.794;24.150;2024-03-22T07:16:32;13.30;68.00
21518;DHT22;61765;45.794;24.150;2024-03-22T07:24:35;14.10;66.80
21518;DHT22;61765;45.794;24.150;2024-03-22T07:32:39;14.50;64.10
21518;DHT22;61765;45.794;24.150;2024-03-22T07:40:41;14.20;65.40
21518;DHT22;61765;45.794;24.150;2024-03-22T07:48:46;14.40;64.80
21518;DHT22;61765;45.794;24.150;2024-03-22T07:56:48;15.20;63.50
21518;DHT22;61765;45.794;24.150;2024-03-22T08:04:52;15.70;60.80
21518;DHT22;61765;45.794;24.150;2024-03-22T08:12:54;15.90;59.90
21518;DHT22;61765;45.794;24.150;2024-03-22T08:20:59;16.70;58.70
21518;DHT22;61765;45.794;24.150;2024-03-22T08:29:01;16.70;57.70
21518;DHT22;61765;45.794;24.150;2024-03-22T08:37:06;17.20;58.40
21518;DHT22;61765;45.794;24.150;2024-03-22T08:45:09;16.90;56.50
21518;DHT22;61765;45.794;24.150;2024-03-22T08:53:13;17.60;56.50
21518;DHT22;61765;45.794;24.150;2024-03-22T09:01:15;17.80;56.20
21518;DHT22;61765;45.794;24.150;2024-03-22T09:09:20;18.20;54.90
21518;DHT22;61765;45.794;24.150;2024-03-22T09:17:22;18.80;54.20
21518;DHT22;61765;45.794;24.150;2024-03-22T09:25:27;19.40;52.50
21518;DHT22;61765;45.794;24.150;2024-03-22T09:33:29;20.20;52.00
21518;DHT22;61765;45.794;24.150;2024-03-22T09:41:40;21.00;48.80
21518;DHT22;61765;45.794;24.150;2024-03-22T09:49:44;21.00;48.40
21518;DHT22;61765;45.794;24.150;2024-03-22T09:57:50;20.90;48.00
21518;DHT22;61765;45.794;24.150;2024-03-22T10:05:52;21.90;48.80
21518;DHT22;61765;45.794;24.150;2024-03-22T10:13:57;23.40;46.80
21518;DHT22;61765;45.794;24.150;2024-03-22T10:22:01;29.70;41.50
21518;DHT22;61765;45.794;24.150;2024-03-22T10:30:09;38.00;34.40
21518;DHT22;61765;45.794;24.150;2024-03-22T10:38:12;43.30;29.40
21518;DHT22;61765;45.794;24.150;2024-03-22T10:46:20;45.70;27.00
21518;DHT22;61765;45.794;24.150;2024-03-22T10:54:26;47.20;26.70
21518;DHT22;61765;45.794;24.150;2024-03-22T11:02:33;49.70;25.70
21518;DHT22;61765;45.794;24.150;2024-03-22T11:10:35;50.90;24.90
21518;DHT22;61765;45.794;24.150;2024-03-22T11:18:40;52.40;23.90
21518;DHT22;61765;45.794;24.150;2024-03-22T11:26:42;53.10;23.70
21518;DHT22;61765;45.794;24.150;2024-03-22T11:34:48;53.70;23.20
21518;DHT22;61765;45.794;24.150;2024-03-22T11:42:53;53.80;23.00
21518;DHT22;61765;45.794;24.150;2024-03-22T11:50:58;54.70;22.50
21518;DHT22;61765;45.794;24.150;2024-03-22T11:59:01;54.00;22.30
21518;DHT22;61765;45.794;24.150;2024-03-22T12:07:06;54.10;22.40
21518;DHT22;61765;45.794;24.150;2024-03-22T12:15:10;53.90;22.40
21518;DHT22;61765;45.794;24.150;2024-03-22T12:23:15;47.40;22.50
21518;DHT22;61765;45.794;24.150;2024-03-22T12:31:17;37.10;26.50
21518;DHT22;61765;45.794;24.150;2024-03-22T12:39:22;30.20;30.60
21518;DHT22;61765;45.794;24.150;2024-03-22T12:47:24;26.90;33.50
21518;DHT22;61765;45.794;24.150;2024-03-22T12:55:29;25.20;35.90
21518;DHT22;61765;45.794;24.150;2024-03-22T13:03:32;24.10;37.30
21518;DHT22;61765;45.794;24.150;2024-03-22T13:11:37;23.00;37.80
21518;DHT22;61765;45.794;24.150;2024-03-22T13:19:39;21.70;39.10
21518;DHT22;61765;45.794;24.150;2024-03-22T13:27:43;21.30;41.00
21518;DHT22;61765;45.794;24.150;2024-03-22T13:35:45;21.30;40.20
21518;DHT22;61765;45.794;24.150;2024-03-22T13:43:50;21.50;41.10
21518;DHT22;61765;45.794;24.150;2024-03-22T13:51:52;21.90;40.40
21518;DHT22;61765;45.794;24.150;2024-03-22T13:59:57;21.50;40.60
21518;DHT22;61765;45.794;24.150;2024-03-22T14:07:59;21.40;42.20
21518;DHT22;61765;45.794;24.150;2024-03-22T14:16:04;21.10;41.90
21518;DHT22;61765;45.794;24.150;2024-03-22T14:24:07;20.70;42.60
21518;DHT22;61765;45.794;24.150;2024-03-22T14:32:11;20.60;43.10
21518;DHT22;61765;45.794;24.150;2024-03-22T14:40:14;20.70;43.70
21518;DHT22;61765;45.794;24.150;2024-03-22T14:48:19;21.00;43.90
21518;DHT22;61765;45.794;24.150;2024-03-22T14:56:21;21.40;43.70
21518;DHT22;61765;45.794;24.150;2024-03-22T15:04:25;21.70;43.90
21518;DHT22;61765;45.794;24.150;2024-03-22T15:12:27;21.60;43.70
21518;DHT22;61765;45.794;24.150;2024-03-22T15:20:32;21.50;42.90
21518;DHT22;61765;45.794;24.150;2024-03-22T15:28:34;21.10;43.80
21518;DHT22;61765;45.794;24.150;2024-03-22T15:36:41;20.80;44.70
21518;DHT22;61765;45.794;24.150;2024-03-22T15:44:44;20.60;45.00
21518;DHT22;61765;45.794;24.150;2024-03-22T15:52:48;20.20;45.70
21518;DHT22;61765;45.794;24.150;2024-03-22T16:00:51;19.90;46.50
21518;DHT22;61765;45.794;24.150;2024-03-22T16:08:55;19.90;46.30
21518;DHT22;61765;45.794;24.150;2024-03-22T16:16:57;19.70;46.80
21518;DHT22;61765;45.794;24.150;2024-03-22T16:25:02;19.60;47.30
21518;DHT22;61765;45.794;24.150;2024-03-22T16:33:04;19.50;47.30
21518;DHT22;61765;45.794;24.150;2024-03-22T16:41:09;19.30;47.80
21518;DHT22;61765;45.794;24.150;2024-03-22T16:49:11;19.20;48.00
21518;DHT22;61765;45.794;24.150;2024-03-22T16:57:16;19.10;48.70
21518;DHT22;61765;45.794;24.150;2024-03-22T17:05:18;18.80;49.40
21518;DHT22;61765;45.794;24.150;2024-03-22T17:13:22;18.60;49.90
21518;DHT22;61765;45.794;24.150;2024-03-22T17:21:24;18.40;50.40
21518;DHT22;61765;45.794;24.150;2024-03-22T17:29:29;18.40;50.90
21518;DHT22;61765;45.794;24.150;2024-03-22T17:37:31;18.20;50.90
21518;DHT22;61765;45.794;24.150;2024-03-22T17:45:36;18.00;51.00
21518;DHT22;61765;45.794;24.150;2024-03-22T17:53:38;17.80;51.70
21518;DHT22;61765;45.794;24.150;2024-03-22T18:01:43;17.60;52.10
21518;DHT22;61765;45.794;24.150;2024-03-22T18:09:45;17.40;52.70
21518;DHT22;61765;45.794;24.150;2024-03-22T18:17:49;17.10;54.40
21518;DHT22;61765;45.794;24.150;2024-03-22T18:25:51;16.30;56.10
21518;DHT22;61765;45.794;24.150;2024-03-22T18:33:56;16.30;56.20
21518;DHT22;61765;45.794;24.150;2024-03-22T18:41:58;16.50;56.50
21518;DHT22;61765;45.794;24.150;2024-03-22T18:50:03;16.40;56.70
21518;DHT22;61765;45.794;24.150;2024-03-22T18:58:05;16.40;57.90
21518;DHT22;61765;45.794;24.150;2024-03-22T19:06:10;16.10;58.30
21518;DHT22;61765;45.794;24.150;2024-03-22T19:14:12;15.80;58.90
21518;DHT22;61765;45.794;24.150;2024-03-22T19:22:16;15.60;59.30
21518;DHT22;61765;45.794;24.150;2024-03-22T19:30:19;15.30;59.30
21518;DHT22;61765;45.794;24.150;2024-03-22T19:38:24;15.20;59.60
21518;DHT22;61765;45.794;24.150;2024-03-22T19:46:26;15.20;60.40
21518;DHT22;61765;45.794;24.150;2024-03-22T19:54:31;15.10;60.00
21518;DHT22;61765;45.794;24.150;2024-03-22T20:02:33;15.00;60.50
21518;DHT22;61765;45.794;24.150;2024-03-22T20:10:37;14.80;60.40
21518;DHT22;61765;45.794;24.150;2024-03-22T20:18:39;14.70;61.40
21518;DHT22;61765;45.794;24.150;2024-03-22T20:26:44;14.60;61.30
21518;DHT22;61765;45.794;24.150;2024-03-22T20:34:46;14.50;61.70
